sensor_id;sensor_type;location;lat;lon;timestamp;P1;durP1;ratioP1;P2;durP2;ratioP2
44850;SDS011;30583;48.714;9.386;2022-09-21T00:00:22;7.38;;;3.60;;
44850;SDS011;30583;48.714;9.386;2022-09-21T00:02:49;8.60;;;3.72;;
44850;SDS011;30583;48.714;9.386;2022-09-21T00:05:16;6.85;;;3.83;;
44850;SDS011;30583;48.714;9.386;2022-09-21T00:07:42;7.75;;;3.78;;
44850;SDS011;30583;48.714;9.386;2022-09-21T00:10:08;8.77;;;3.53;;
44850;SDS011;30583;48.714;9.386;2022-09-21T00:12:34;8.13;;;4.15;;
44850;SDS011;30583;48.714;9.386;2022-09-21T00:15:03;8.32;;;3.83;;
44850;SDS011;30583;48.714;9.386;2022-09-21T00:17:32;12.65;;;4.13;;
44850;SDS011;30583;48.714;9.386;2022-09-21T00:19:59;8.45;;;3.95;;
44850;SDS011;30583;48.714;9.386;2022-09-21T00:22:26;8.90;;;4.35;;
44850;SDS011;30583;48.714;9.386;2022-09-21T00:24:53;8.60;;;4.63;;
44850;SDS011;30583;48.714;9.386;2022-09-21T00:27:19;7.63;;;4.40;;
44850;SDS011;30583;48.714;9.386;2022-09-21T00:29:44;9.30;;;4.82;;
44850;SDS011;30583;48.714;9.386;2022-09-21T00:32:10;8.57;;;4.63;;
44850;SDS011;30583;48.714;9.386;2022-09-21T00:34:35;8.02;;;4.53;;
44850;SDS011;30583;48.714;9.386;2022-09-21T00:37:01;7.35;;;4.68;;
44850;SDS011;30583;48.714;9.386;2022-09-21T00:39:27;6.50;;;4.43;;
44850;SDS011;30583;48.714;9.386;2022-09-21T00:41:52;8.15;;;4.60;;
44850;SDS011;30583;48.714;9.386;2022-09-21T00:46:55;6.90;;;4.53;;
44850;SDS011;30583;48.714;9.386;2022-09-21T00:49:23;8.27;;;4.25;;
44850;SDS011;30583;48.714;9.386;2022-09-21T00:51:51;7.68;;;4.70;;
44850;SDS011;30583;48.714;9.386;2022-09-21T00:54:22;8.57;;;4.70;;
44850;SDS011;30583;48.714;9.386;2022-09-21T00:56:53;8.50;;;4.68;;
44850;SDS011;30583;48.714;9.386;2022-09-21T00:59:20;6.80;;;4.32;;
44850;SDS011;30583;48.714;9.386;2022-09-21T01:01:47;7.85;;;4.55;;
44850;SDS011;30583;48.714;9.386;2022-09-21T01:04:13;11.70;;;4.60;;
44850;SDS011;30583;48.714;9.386;2022-09-21T01:06:40;8.10;;;4.40;;
44850;SDS011;30583;48.714;9.386;2022-09-21T01:09:06;6.15;;;3.80;;
44850;SDS011;30583;48.714;9.386;2022-09-21T01:30:45;7.55;;;4.57;;
44850;SDS011;30583;48.714;9.386;2022-09-21T01:33:16;8.80;;;4.45;;
44850;SDS011;30583;48.714;9.386;2022-09-21T01:35:51;7.65;;;4.63;;
44850;SDS011;30583;48.714;9.386;2022-09-21T01:38:25;7.13;;;4.15;;
44850;SDS011;30583;48.714;9.386;2022-09-21T01:40:57;11.88;;;4.13;;
44850;SDS011;30583;48.714;9.386;2022-09-21T01:43:26;8.32;;;4.28;;
44850;SDS011;30583;48.714;9.386;2022-09-21T01:45:58;8.35;;;4.65;;
44850;SDS011;30583;48.714;9.386;2022-09-21T01:48:29;6.40;;;3.90;;
44850;SDS011;30583;48.714;9.386;2022-09-21T01:50:59;7.95;;;4.35;;
44850;SDS011;30583;48.714;9.386;2022-09-21T01:56:18;7.70;;;4.05;;
44850;SDS011;30583;48.714;9.386;2022-09-21T02:01:45;7.40;;;4.10;;
44850;SDS011;30583;48.714;9.386;2022-09-21T02:04:22;8.40;;;4.38;;
44850;SDS011;30583;48.714;9.386;2022-09-21T02:06:48;6.90;;;4.20;;
44850;SDS011;30583;48.714;9.386;2022-09-21T02:09:14;11.15;;;4.63;;
44850;SDS011;30583;48.714;9.386;2022-09-21T02:11:41;6.50;;;4.10;;
44850;SDS011;30583;48.714;9.386;2022-09-21T02:14:15;8.05;;;4.22;;
44850;SDS011;30583;48.714;9.386;2022-09-21T02:19:22;6.30;;;4.15;;
44850;SDS011;30583;48.714;9.386;2022-09-21T02:22:06;9.57;;;4.63;;
44850;SDS011;30583;48.714;9.386;2022-09-21T02:24:48;8.18;;;5.20;;
44850;SDS011;30583;48.714;9.386;2022-09-21T02:27:27;8.95;;;4.30;;
44850;SDS011;30583;48.714;9.386;2022-09-21T02:35:21;9.68;;;4.97;;
44850;SDS011;30583;48.714;9.386;2022-09-21T02:43:24;10.07;;;4.80;;
44850;SDS011;30583;48.714;9.386;2022-09-21T02:45:56;6.13;;;4.30;;
44850;SDS011;30583;48.714;9.386;2022-09-21T02:48:28;8.95;;;4.53;;
44850;SDS011;30583;48.714;9.386;2022-09-21T02:51:03;10.05;;;4.80;;
44850;SDS011;30583;48.714;9.386;2022-09-21T02:56:02;7.13;;;4.47;;
44850;SDS011;30583;48.714;9.386;2022-09-21T02:58:32;9.05;;;4.82;;
44850;SDS011;30583;48.714;9.386;2022-09-21T03:01:04;6.20;;;4.35;;
44850;SDS011;30583;48.714;9.386;2022-09-21T03:03:32;8.25;;;4.22;;
44850;SDS011;30583;48.714;9.386;2022-09-21T03:05:58;9.52;;;4.85;;
44850;SDS011;30583;48.714;9.386;2022-09-21T03:08:24;8.05;;;5.18;;
44850;SDS011;30583;48.714;9.386;2022-09-21T03:10:50;10.90;;;5.15;;
44850;SDS011;30583;48.714;9.386;2022-09-21T03:13:16;8.43;;;5.03;;
44850;SDS011;30583;48.714;9.386;2022-09-21T03:15:42;7.80;;;5.00;;
44850;SDS011;30583;48.714;9.386;2022-09-21T03:18:10;8.00;;;5.07;;
44850;SDS011;30583;48.714;9.386;2022-09-21T03:20:36;7.38;;;4.72;;
44850;SDS011;30583;48.714;9.386;2022-09-21T03:23:03;8.30;;;4.20;;
44850;SDS011;30583;48.714;9.386;2022-09-21T03:25:29;7.63;;;4.35;;
44850;SDS011;30583;48.714;9.386;2022-09-21T03:27:56;6.25;;;4.15;;
44850;SDS011;30583;48.714;9.386;2022-09-21T03:30:23;8.55;;;4.82;;
44850;SDS011;30583;48.714;9.386;2022-09-21T03:32:50;12.35;;;6.22;;
44850;SDS011;30583;48.714;9.386;2022-09-21T03:35:17;91.00;;;55.08;;
44850;SDS011;30583;48.714;9.386;2022-09-21T03:37:44;48.28;;;32.50;;
44850;SDS011;30583;48.714;9.386;2022-09-21T03:40:12;23.48;;;15.05;;
44850;SDS011;30583;48.714;9.386;2022-09-21T03:42:39;11.57;;;7.72;;
44850;SDS011;30583;48.714;9.386;2022-09-21T03:45:06;8.48;;;5.45;;
44850;SDS011;30583;48.714;9.386;2022-09-21T03:47:33;8.90;;;4.85;;
44850;SDS011;30583;48.714;9.386;2022-09-21T03:49:59;9.68;;;4.90;;
44850;SDS011;30583;48.714;9.386;2022-09-21T03:52:24;10.43;;;5.43;;
44850;SDS011;30583;48.714;9.386;2022-09-21T03:54:50;11.77;;;8.68;;
44850;SDS011;30583;48.714;9.386;2022-09-21T03:57:16;10.55;;;8.18;;
44850;SDS011;30583;48.714;9.386;2022-09-21T03:59:41;9.10;;;5.90;;
44850;SDS011;30583;48.714;9.386;2022-09-21T04:04:42;9.43;;;5.05;;
44850;SDS011;30583;48.714;9.386;2022-09-21T04:07:08;11.60;;;5.07;;
44850;SDS011;30583;48.714;9.386;2022-09-21T04:09:33;6.57;;;4.38;;
44850;SDS011;30583;48.714;9.386;2022-09-21T04:11:59;8.27;;;4.30;;
44850;SDS011;30583;48.714;9.386;2022-09-21T04:14:25;10.32;;;4.20;;
44850;SDS011;30583;48.714;9.386;2022-09-21T04:16:51;6.10;;;4.20;;
44850;SDS011;30583;48.714;9.386;2022-09-21T04:19:17;7.65;;;4.38;;
44850;SDS011;30583;48.714;9.386;2022-09-21T04:21:43;5.53;;;4.03;;
44850;SDS011;30583;48.714;9.386;2022-09-21T04:24:08;9.32;;;6.30;;
44850;SDS011;30583;48.714;9.386;2022-09-21T04:26:35;9.88;;;6.85;;
44850;SDS011;30583;48.714;9.386;2022-09-21T04:29:01;10.02;;;5.18;;
44850;SDS011;30583;48.714;9.386;2022-09-21T04:31:27;9.82;;;4.78;;
44850;SDS011;30583;48.714;9.386;2022-09-21T04:33:55;8.20;;;4.70;;
44850;SDS011;30583;48.714;9.386;2022-09-21T04:36:22;9.85;;;4.80;;
44850;SDS011;30583;48.714;9.386;2022-09-21T04:38:48;7.82;;;4.85;;
44850;SDS011;30583;48.714;9.386;2022-09-21T04:41:15;11.02;;;5.35;;
44850;SDS011;30583;48.714;9.386;2022-09-21T04:43:41;10.35;;;5.45;;
44850;SDS011;30583;48.714;9.386;2022-09-21T04:46:12;7.97;;;4.35;;
44850;SDS011;30583;48.714;9.386;2022-09-21T04:48:40;8.35;;;4.47;;
44850;SDS011;30583;48.714;9.386;2022-09-21T04:51:06;7.45;;;4.22;;
44850;SDS011;30583;48.714;9.386;2022-09-21T04:53:34;6.82;;;3.90;;
44850;SDS011;30583;48.714;9.386;2022-09-21T04:56:01;7.15;;;4.68;;
44850;SDS011;30583;48.714;9.386;2022-09-21T04:58:28;7.68;;;4.38;;
44850;SDS011;30583;48.714;9.386;2022-09-21T05:00:54;7.85;;;4.32;;
44850;SDS011;30583;48.714;9.386;2022-09-21T05:03:21;6.18;;;4.03;;
44850;SDS011;30583;48.714;9.386;2022-09-21T05:05:48;6.50;;;3.60;;
44850;SDS011;30583;48.714;9.386;2022-09-21T05:08:24;7.28;;;3.97;;
44850;SDS011;30583;48.714;9.386;2022-09-21T05:11:10;8.75;;;4.78;;
44850;SDS011;30583;48.714;9.386;2022-09-21T05:13:41;16.10;;;4.90;;
44850;SDS011;30583;48.714;9.386;2022-09-21T05:16:07;21.27;;;5.35;;
44850;SDS011;30583;48.714;9.386;2022-09-21T05:18:33;27.13;;;5.72;;
44850;SDS011;30583;48.714;9.386;2022-09-21T05:21:00;13.63;;;4.82;;
44850;SDS011;30583;48.714;9.386;2022-09-21T05:23:27;11.80;;;4.60;;
44850;SDS011;30583;48.714;9.386;2022-09-21T05:25:54;9.25;;;4.75;;
44850;SDS011;30583;48.714;9.386;2022-09-21T05:28:20;16.13;;;5.35;;
44850;SDS011;30583;48.714;9.386;2022-09-21T05:31:30;9.73;;;5.10;;
44850;SDS011;30583;48.714;9.386;2022-09-21T05:33:51;9.20;;;5.38;;
44850;SDS011;30583;48.714;9.386;2022-09-21T05:36:30;10.00;;;5.90;;
44850;SDS011;30583;48.714;9.386;2022-09-21T05:39:03;12.25;;;6.45;;
44850;SDS011;30583;48.714;9.386;2022-09-21T05:41:29;11.38;;;5.75;;
44850;SDS011;30583;48.714;9.386;2022-09-21T05:43:55;7.38;;;4.63;;
44850;SDS011;30583;48.714;9.386;2022-09-21T05:50:05;10.93;;;6.50;;
44850;SDS011;30583;48.714;9.386;2022-09-21T06:00:46;9.98;;;6.07;;
44850;SDS011;30583;48.714;9.386;2022-09-21T06:03:34;11.65;;;6.22;;
44850;SDS011;30583;48.714;9.386;2022-09-21T06:06:01;8.80;;;6.00;;
44850;SDS011;30583;48.714;9.386;2022-09-21T06:08:27;10.50;;;5.13;;
44850;SDS011;30583;48.714;9.386;2022-09-21T06:10:53;11.60;;;5.13;;
44850;SDS011;30583;48.714;9.386;2022-09-21T06:13:19;11.05;;;5.07;;
44850;SDS011;30583;48.714;9.386;2022-09-21T06:15:45;8.65;;;4.45;;
44850;SDS011;30583;48.714;9.386;2022-09-21T06:18:11;5.68;;;3.80;;
44850;SDS011;30583;48.714;9.386;2022-09-21T06:20:37;4.38;;;3.28;;
44850;SDS011;30583;48.714;9.386;2022-09-21T06:23:03;7.90;;;3.55;;
44850;SDS011;30583;48.714;9.386;2022-09-21T06:25:30;7.28;;;3.90;;
44850;SDS011;30583;48.714;9.386;2022-09-21T06:28:18;5.25;;;3.78;;
44850;SDS011;30583;48.714;9.386;2022-09-21T06:30:43;5.95;;;3.67;;
44850;SDS011;30583;48.714;9.386;2022-09-21T06:33:14;7.10;;;3.60;;
44850;SDS011;30583;48.714;9.386;2022-09-21T06:35:50;7.70;;;4.55;;
44850;SDS011;30583;48.714;9.386;2022-09-21T06:38:17;5.88;;;3.85;;
44850;SDS011;30583;48.714;9.386;2022-09-21T06:40:42;6.97;;;4.00;;
44850;SDS011;30583;48.714;9.386;2022-09-21T06:43:08;5.65;;;3.83;;
44850;SDS011;30583;48.714;9.386;2022-09-21T06:45:33;8.70;;;4.13;;
44850;SDS011;30583;48.714;9.386;2022-09-21T06:47:59;7.18;;;4.80;;
44850;SDS011;30583;48.714;9.386;2022-09-21T06:50:25;7.45;;;4.93;;
44850;SDS011;30583;48.714;9.386;2022-09-21T06:52:50;10.18;;;5.10;;
44850;SDS011;30583;48.714;9.386;2022-09-21T06:55:16;8.52;;;5.20;;
44850;SDS011;30583;48.714;9.386;2022-09-21T06:57:42;8.65;;;4.95;;
44850;SDS011;30583;48.714;9.386;2022-09-21T07:00:08;7.95;;;4.80;;
44850;SDS011;30583;48.714;9.386;2022-09-21T07:02:36;9.60;;;5.43;;
44850;SDS011;30583;48.714;9.386;2022-09-21T07:05:02;12.45;;;4.70;;
44850;SDS011;30583;48.714;9.386;2022-09-21T07:07:28;13.73;;;5.35;;
44850;SDS011;30583;48.714;9.386;2022-09-21T07:09:55;9.32;;;5.20;;
44850;SDS011;30583;48.714;9.386;2022-09-21T07:12:22;13.02;;;5.43;;
44850;SDS011;30583;48.714;9.386;2022-09-21T07:14:50;13.43;;;5.03;;
44850;SDS011;30583;48.714;9.386;2022-09-21T07:17:16;13.82;;;6.05;;
44850;SDS011;30583;48.714;9.386;2022-09-21T07:19:41;8.30;;;5.60;;
44850;SDS011;30583;48.714;9.386;2022-09-21T07:22:07;10.98;;;5.90;;
44850;SDS011;30583;48.714;9.386;2022-09-21T07:24:32;8.93;;;5.20;;
44850;SDS011;30583;48.714;9.386;2022-09-21T07:26:58;8.85;;;5.28;;
44850;SDS011;30583;48.714;9.386;2022-09-21T07:29:23;10.90;;;5.78;;
44850;SDS011;30583;48.714;9.386;2022-09-21T07:31:49;9.63;;;5.30;;
44850;SDS011;30583;48.714;9.386;2022-09-21T07:34:15;7.35;;;5.00;;
44850;SDS011;30583;48.714;9.386;2022-09-21T07:36:41;8.27;;;4.10;;
44850;SDS011;30583;48.714;9.386;2022-09-21T07:39:09;9.25;;;5.07;;
44850;SDS011;30583;48.714;9.386;2022-09-21T07:41:35;7.00;;;4.47;;
44850;SDS011;30583;48.714;9.386;2022-09-21T07:44:01;9.40;;;4.63;;
44850;SDS011;30583;48.714;9.386;2022-09-21T07:46:27;10.95;;;4.72;;
44850;SDS011;30583;48.714;9.386;2022-09-21T07:48:53;11.63;;;5.28;;
44850;SDS011;30583;48.714;9.386;2022-09-21T07:51:20;10.23;;;5.32;;
44850;SDS011;30583;48.714;9.386;2022-09-21T07:53:45;11.57;;;4.38;;
44850;SDS011;30583;48.714;9.386;2022-09-21T07:56:12;7.28;;;4.88;;
44850;SDS011;30583;48.714;9.386;2022-09-21T07:58:40;9.00;;;4.28;;
44850;SDS011;30583;48.714;9.386;2022-09-21T08:01:24;9.70;;;5.30;;
44850;SDS011;30583;48.714;9.386;2022-09-21T08:03:51;7.80;;;5.05;;
44850;SDS011;30583;48.714;9.386;2022-09-21T08:06:18;10.05;;;5.45;;
44850;SDS011;30583;48.714;9.386;2022-09-21T08:08:45;7.82;;;5.00;;
44850;SDS011;30583;48.714;9.386;2022-09-21T08:11:12;11.93;;;5.50;;
44850;SDS011;30583;48.714;9.386;2022-09-21T08:13:38;8.57;;;4.68;;
44850;SDS011;30583;48.714;9.386;2022-09-21T08:16:04;9.27;;;4.90;;
44850;SDS011;30583;48.714;9.386;2022-09-21T08:18:30;11.10;;;4.95;;
44850;SDS011;30583;48.714;9.386;2022-09-21T08:20:56;9.52;;;4.82;;
44850;SDS011;30583;48.714;9.386;2022-09-21T08:23:23;8.98;;;4.65;;
44850;SDS011;30583;48.714;9.386;2022-09-21T08:25:56;8.02;;;4.07;;
44850;SDS011;30583;48.714;9.386;2022-09-21T08:28:29;8.75;;;4.90;;
44850;SDS011;30583;48.714;9.386;2022-09-21T08:31:01;10.80;;;4.13;;
44850;SDS011;30583;48.714;9.386;2022-09-21T08:33:28;7.10;;;4.13;;
44850;SDS011;30583;48.714;9.386;2022-09-21T08:35:54;10.52;;;4.50;;
44850;SDS011;30583;48.714;9.386;2022-09-21T08:38:20;11.60;;;7.22;;
44850;SDS011;30583;48.714;9.386;2022-09-21T08:40:46;12.13;;;6.30;;
44850;SDS011;30583;48.714;9.386;2022-09-21T08:43:14;9.05;;;5.13;;
44850;SDS011;30583;48.714;9.386;2022-09-21T08:45:51;9.93;;;4.90;;
44850;SDS011;30583;48.714;9.386;2022-09-21T08:48:19;9.48;;;5.05;;
44850;SDS011;30583;48.714;9.386;2022-09-21T08:51:01;10.93;;;5.10;;
44850;SDS011;30583;48.714;9.386;2022-09-21T08:53:31;16.48;;;7.65;;
44850;SDS011;30583;48.714;9.386;2022-09-21T08:56:12;8.10;;;5.13;;
44850;SDS011;30583;48.714;9.386;2022-09-21T08:58:39;10.38;;;4.90;;
44850;SDS011;30583;48.714;9.386;2022-09-21T09:12:00;6.00;;;3.08;;
44850;SDS011;30583;48.714;9.386;2022-09-21T09:17:51;5.95;;;1.50;;
44850;SDS011;30583;48.714;9.386;2022-09-21T09:20:41;5.00;;;1.45;;
44850;SDS011;30583;48.714;9.386;2022-09-21T09:23:12;4.05;;;1.00;;
44850;SDS011;30583;48.714;9.386;2022-09-21T09:25:49;5.32;;;1.52;;
44850;SDS011;30583;48.714;9.386;2022-09-21T09:31:18;3.47;;;1.10;;
44850;SDS011;30583;48.714;9.386;2022-09-21T09:34:14;3.75;;;1.10;;
44850;SDS011;30583;48.714;9.386;2022-09-21T09:37:04;4.93;;;2.05;;
44850;SDS011;30583;48.714;9.386;2022-09-21T09:39:36;6.13;;;2.70;;
44850;SDS011;30583;48.714;9.386;2022-09-21T09:42:09;4.68;;;1.50;;
44850;SDS011;30583;48.714;9.386;2022-09-21T09:44:42;5.25;;;1.77;;
44850;SDS011;30583;48.714;9.386;2022-09-21T09:47:39;6.35;;;1.63;;
44850;SDS011;30583;48.714;9.386;2022-09-21T09:50:27;3.10;;;1.10;;
44850;SDS011;30583;48.714;9.386;2022-09-21T09:55:38;2.97;;;1.25;;
44850;SDS011;30583;48.714;9.386;2022-09-21T09:58:56;6.45;;;1.10;;
44850;SDS011;30583;48.714;9.386;2022-09-21T10:04:07;3.38;;;0.82;;
44850;SDS011;30583;48.714;9.386;2022-09-21T10:06:34;2.13;;;1.10;;
44850;SDS011;30583;48.714;9.386;2022-09-21T10:09:00;2.15;;;0.90;;
44850;SDS011;30583;48.714;9.386;2022-09-21T10:11:35;3.03;;;0.80;;
44850;SDS011;30583;48.714;9.386;2022-09-21T10:14:08;4.20;;;1.00;;
44850;SDS011;30583;48.714;9.386;2022-09-21T10:16:41;3.72;;;0.85;;
44850;SDS011;30583;48.714;9.386;2022-09-21T10:19:41;2.65;;;0.95;;
44850;SDS011;30583;48.714;9.386;2022-09-21T10:22:00;2.55;;;0.85;;
44850;SDS011;30583;48.714;9.386;2022-09-21T10:24:28;5.35;;;1.10;;
44850;SDS011;30583;48.714;9.386;2022-09-21T10:27:04;3.47;;;1.40;;
44850;SDS011;30583;48.714;9.386;2022-09-21T10:37:40;4.57;;;1.27;;
44850;SDS011;30583;48.714;9.386;2022-09-21T10:42:47;1.67;;;0.60;;
44850;SDS011;30583;48.714;9.386;2022-09-21T10:47:55;3.47;;;0.90;;
44850;SDS011;30583;48.714;9.386;2022-09-21T10:53:10;3.75;;;1.15;;
44850;SDS011;30583;48.714;9.386;2022-09-21T10:55:46;6.32;;;1.15;;
44850;SDS011;30583;48.714;9.386;2022-09-21T10:58:20;4.90;;;1.27;;
44850;SDS011;30583;48.714;9.386;2022-09-21T11:00:46;2.38;;;0.80;;
44850;SDS011;30583;48.714;9.386;2022-09-21T11:15:07;3.50;;;0.90;;
44850;SDS011;30583;48.714;9.386;2022-09-21T11:17:42;3.42;;;0.88;;
44850;SDS011;30583;48.714;9.386;2022-09-21T11:20:47;2.35;;;0.70;;
44850;SDS011;30583;48.714;9.386;2022-09-21T11:28:57;3.50;;;0.77;;
44850;SDS011;30583;48.714;9.386;2022-09-21T11:37:26;3.58;;;1.20;;
44850;SDS011;30583;48.714;9.386;2022-09-21T11:40:21;3.50;;;1.60;;
44850;SDS011;30583;48.714;9.386;2022-09-21T11:48:15;1.05;;;0.55;;
44850;SDS011;30583;48.714;9.386;2022-09-21T11:57:01;2.00;;;0.73;;
44850;SDS011;30583;48.714;9.386;2022-09-21T12:05:43;2.67;;;0.90;;
44850;SDS011;30583;48.714;9.386;2022-09-21T12:11:06;1.20;;;0.60;;
44850;SDS011;30583;48.714;9.386;2022-09-21T12:13:40;3.72;;;0.60;;
44850;SDS011;30583;48.714;9.386;2022-09-21T12:18:56;3.85;;;0.80;;
44850;SDS011;30583;48.714;9.386;2022-09-21T12:21:24;3.13;;;0.60;;
44850;SDS011;30583;48.714;9.386;2022-09-21T12:26:49;1.85;;;0.70;;
44850;SDS011;30583;48.714;9.386;2022-09-21T12:29:34;1.55;;;0.75;;
44850;SDS011;30583;48.714;9.386;2022-09-21T12:32:17;1.55;;;0.82;;
44850;SDS011;30583;48.714;9.386;2022-09-21T12:34:54;1.67;;;0.63;;
44850;SDS011;30583;48.714;9.386;2022-09-21T12:40:12;2.42;;;0.75;;
44850;SDS011;30583;48.714;9.386;2022-09-21T12:42:50;2.85;;;0.70;;
44850;SDS011;30583;48.714;9.386;2022-09-21T12:45:21;1.67;;;0.60;;
44850;SDS011;30583;48.714;9.386;2022-09-21T12:47:57;3.08;;;0.57;;
44850;SDS011;30583;48.714;9.386;2022-09-21T12:50:33;1.25;;;0.60;;
44850;SDS011;30583;48.714;9.386;2022-09-21T12:53:07;1.45;;;0.60;;
44850;SDS011;30583;48.714;9.386;2022-09-21T13:01:44;1.92;;;0.60;;
44850;SDS011;30583;48.714;9.386;2022-09-21T13:04:36;2.15;;;1.00;;
44850;SDS011;30583;48.714;9.386;2022-09-21T13:07:27;1.58;;;0.60;;
44850;SDS011;30583;48.714;9.386;2022-09-21T13:10:06;1.40;;;0.60;;
44850;SDS011;30583;48.714;9.386;2022-09-21T13:12:39;1.83;;;0.90;;
44850;SDS011;30583;48.714;9.386;2022-09-21T13:15:13;2.35;;;0.65;;
44850;SDS011;30583;48.714;9.386;2022-09-21T13:18:04;3.25;;;0.70;;
44850;SDS011;30583;48.714;9.386;2022-09-21T13:20:34;1.02;;;0.50;;
44850;SDS011;30583;48.714;9.386;2022-09-21T13:23:02;2.35;;;0.50;;
44850;SDS011;30583;48.714;9.386;2022-09-21T13:25:29;3.90;;;1.17;;
44850;SDS011;30583;48.714;9.386;2022-09-21T13:30:47;1.45;;;0.60;;
44850;SDS011;30583;48.714;9.386;2022-09-21T13:33:37;1.00;;;0.52;;
44850;SDS011;30583;48.714;9.386;2022-09-21T13:36:09;1.17;;;0.70;;
44850;SDS011;30583;48.714;9.386;2022-09-21T13:39:11;2.35;;;0.60;;
44850;SDS011;30583;48.714;9.386;2022-09-21T13:41:42;1.77;;;0.82;;
44850;SDS011;30583;48.714;9.386;2022-09-21T13:46:46;2.42;;;0.80;;
44850;SDS011;30583;48.714;9.386;2022-09-21T13:51:53;1.58;;;0.73;;
44850;SDS011;30583;48.714;9.386;2022-09-21T13:54:26;1.67;;;0.70;;
44850;SDS011;30583;48.714;9.386;2022-09-21T13:56:59;2.70;;;0.88;;
44850;SDS011;30583;48.714;9.386;2022-09-21T13:59:27;4.20;;;0.80;;
44850;SDS011;30583;48.714;9.386;2022-09-21T14:01:53;1.35;;;0.68;;
44850;SDS011;30583;48.714;9.386;2022-09-21T14:04:22;3.40;;;0.90;;
44850;SDS011;30583;48.714;9.386;2022-09-21T14:06:51;3.13;;;1.08;;
44850;SDS011;30583;48.714;9.386;2022-09-21T14:12:05;3.33;;;1.10;;
44850;SDS011;30583;48.714;9.386;2022-09-21T14:14:36;1.63;;;0.80;;
44850;SDS011;30583;48.714;9.386;2022-09-21T14:20:05;2.40;;;0.80;;
44850;SDS011;30583;48.714;9.386;2022-09-21T14:23:09;2.53;;;0.85;;
44850;SDS011;30583;48.714;9.386;2022-09-21T14:25:52;3.53;;;0.90;;
44850;SDS011;30583;48.714;9.386;2022-09-21T14:28:42;1.77;;;0.98;;
44850;SDS011;30583;48.714;9.386;2022-09-21T14:31:16;2.22;;;1.00;;
44850;SDS011;30583;48.714;9.386;2022-09-21T14:33:55;1.17;;;0.70;;
44850;SDS011;30583;48.714;9.386;2022-09-21T14:36:30;4.55;;;0.88;;
44850;SDS011;30583;48.714;9.386;2022-09-21T14:39:03;1.13;;;0.75;;
44850;SDS011;30583;48.714;9.386;2022-09-21T14:41:36;4.65;;;1.10;;
44850;SDS011;30583;48.714;9.386;2022-09-21T14:44:03;2.60;;;1.15;;
44850;SDS011;30583;48.714;9.386;2022-09-21T14:49:44;1.83;;;0.70;;
44850;SDS011;30583;48.714;9.386;2022-09-21T15:00:23;3.22;;;1.02;;
44850;SDS011;30583;48.714;9.386;2022-09-21T15:05:56;2.38;;;0.85;;
44850;SDS011;30583;48.714;9.386;2022-09-21T15:08:44;1.77;;;0.80;;
44850;SDS011;30583;48.714;9.386;2022-09-21T15:11:35;2.35;;;0.95;;
44850;SDS011;30583;48.714;9.386;2022-09-21T15:14:25;1.50;;;0.90;;
44850;SDS011;30583;48.714;9.386;2022-09-21T15:16:52;2.75;;;1.20;;
44850;SDS011;30583;48.714;9.386;2022-09-21T15:19:25;1.92;;;0.80;;
44850;SDS011;30583;48.714;9.386;2022-09-21T15:21:53;4.57;;;2.22;;
44850;SDS011;30583;48.714;9.386;2022-09-21T15:24:32;2.20;;;0.70;;
44850;SDS011;30583;48.714;9.386;2022-09-21T15:27:08;1.48;;;0.70;;
44850;SDS011;30583;48.714;9.386;2022-09-21T15:29:41;1.08;;;0.70;;
44850;SDS011;30583;48.714;9.386;2022-09-21T15:32:15;2.35;;;1.08;;
44850;SDS011;30583;48.714;9.386;2022-09-21T15:35:18;1.83;;;0.60;;
44850;SDS011;30583;48.714;9.386;2022-09-21T15:37:44;1.10;;;0.50;;
44850;SDS011;30583;48.714;9.386;2022-09-21T15:40:20;1.42;;;0.70;;
44850;SDS011;30583;48.714;9.386;2022-09-21T15:43:04;0.85;;;0.40;;
44850;SDS011;30583;48.714;9.386;2022-09-21T15:45:49;1.55;;;0.80;;
44850;SDS011;30583;48.714;9.386;2022-09-21T15:48:22;1.77;;;0.70;;
44850;SDS011;30583;48.714;9.386;2022-09-21T15:51:02;1.25;;;0.75;;
44850;SDS011;30583;48.714;9.386;2022-09-21T15:53:55;2.92;;;0.70;;
44850;SDS011;30583;48.714;9.386;2022-09-21T15:56:23;2.35;;;0.60;;
44850;SDS011;30583;48.714;9.386;2022-09-21T15:58:50;1.77;;;0.80;;
44850;SDS011;30583;48.714;9.386;2022-09-21T16:01:23;1.65;;;0.73;;
44850;SDS011;30583;48.714;9.386;2022-09-21T16:04:00;3.33;;;0.93;;
44850;SDS011;30583;48.714;9.386;2022-09-21T16:06:36;1.15;;;0.80;;
44850;SDS011;30583;48.714;9.386;2022-09-21T16:11:55;2.10;;;0.60;;
44850;SDS011;30583;48.714;9.386;2022-09-21T16:14:21;2.17;;;1.08;;
44850;SDS011;30583;48.714;9.386;2022-09-21T16:19:41;1.02;;;0.60;;
44850;SDS011;30583;48.714;9.386;2022-09-21T16:22:11;1.27;;;0.65;;
44850;SDS011;30583;48.714;9.386;2022-09-21T16:24:45;1.70;;;0.67;;
44850;SDS011;30583;48.714;9.386;2022-09-21T16:27:18;1.10;;;0.80;;
44850;SDS011;30583;48.714;9.386;2022-09-21T16:29:45;1.55;;;0.90;;
44850;SDS011;30583;48.714;9.386;2022-09-21T16:34:42;2.42;;;0.88;;
44850;SDS011;30583;48.714;9.386;2022-09-21T16:37:23;1.58;;;1.00;;
44850;SDS011;30583;48.714;9.386;2022-09-21T16:39:56;1.90;;;0.90;;
44850;SDS011;30583;48.714;9.386;2022-09-21T16:42:23;1.63;;;0.82;;
44850;SDS011;30583;48.714;9.386;2022-09-21T16:44:52;2.55;;;1.00;;
44850;SDS011;30583;48.714;9.386;2022-09-21T16:47:22;2.58;;;0.85;;
44850;SDS011;30583;48.714;9.386;2022-09-21T16:49:56;0.95;;;0.70;;
44850;SDS011;30583;48.714;9.386;2022-09-21T16:52:26;2.90;;;0.95;;
44850;SDS011;30583;48.714;9.386;2022-09-21T16:54:52;3.35;;;1.55;;
44850;SDS011;30583;48.714;9.386;2022-09-21T16:57:20;4.47;;;1.20;;
44850;SDS011;30583;48.714;9.386;2022-09-21T16:59:46;2.75;;;1.50;;
44850;SDS011;30583;48.714;9.386;2022-09-21T17:02:13;4.28;;;1.75;;
44850;SDS011;30583;48.714;9.386;2022-09-21T17:04:39;7.38;;;3.00;;
44850;SDS011;30583;48.714;9.386;2022-09-21T17:07:05;9.80;;;5.57;;
44850;SDS011;30583;48.714;9.386;2022-09-21T17:12:02;22.45;;;9.65;;
44850;SDS011;30583;48.714;9.386;2022-09-21T17:14:34;18.38;;;8.77;;
44850;SDS011;30583;48.714;9.386;2022-09-21T17:17:02;15.85;;;7.82;;
44850;SDS011;30583;48.714;9.386;2022-09-21T17:19:42;5.00;;;2.22;;
44850;SDS011;30583;48.714;9.386;2022-09-21T17:22:10;8.35;;;4.05;;
44850;SDS011;30583;48.714;9.386;2022-09-21T17:24:41;7.82;;;3.58;;
44850;SDS011;30583;48.714;9.386;2022-09-21T17:27:09;4.75;;;2.08;;
44850;SDS011;30583;48.714;9.386;2022-09-21T17:29:36;4.30;;;2.35;;
44850;SDS011;30583;48.714;9.386;2022-09-21T17:32:04;5.38;;;2.80;;
44850;SDS011;30583;48.714;9.386;2022-09-21T17:34:34;6.10;;;2.80;;
44850;SDS011;30583;48.714;9.386;2022-09-21T17:37:00;6.68;;;2.90;;
44850;SDS011;30583;48.714;9.386;2022-09-21T17:39:26;5.15;;;3.17;;
44850;SDS011;30583;48.714;9.386;2022-09-21T17:41:52;9.65;;;4.22;;
44850;SDS011;30583;48.714;9.386;2022-09-21T17:46:58;10.13;;;4.63;;
44850;SDS011;30583;48.714;9.386;2022-09-21T17:49:29;7.72;;;3.67;;
44850;SDS011;30583;48.714;9.386;2022-09-21T17:51:55;5.35;;;3.13;;
44850;SDS011;30583;48.714;9.386;2022-09-21T17:54:39;6.68;;;3.20;;
44850;SDS011;30583;48.714;9.386;2022-09-21T17:59:59;7.38;;;2.45;;
44850;SDS011;30583;48.714;9.386;2022-09-21T18:02:37;7.70;;;4.30;;
44850;SDS011;30583;48.714;9.386;2022-09-21T18:05:14;6.68;;;4.00;;
44850;SDS011;30583;48.714;9.386;2022-09-21T18:07:46;8.55;;;3.63;;
44850;SDS011;30583;48.714;9.386;2022-09-21T18:10:13;11.23;;;6.07;;
44850;SDS011;30583;48.714;9.386;2022-09-21T18:15:40;6.28;;;3.97;;
44850;SDS011;30583;48.714;9.386;2022-09-21T18:21:57;8.38;;;5.65;;
44850;SDS011;30583;48.714;9.386;2022-09-21T18:24:39;8.57;;;5.70;;
44850;SDS011;30583;48.714;9.386;2022-09-21T18:27:05;7.32;;;3.60;;
44850;SDS011;30583;48.714;9.386;2022-09-21T18:29:33;8.05;;;4.20;;
44850;SDS011;30583;48.714;9.386;2022-09-21T18:32:10;8.25;;;4.03;;
44850;SDS011;30583;48.714;9.386;2022-09-21T18:40:44;14.63;;;7.32;;